Time;durP1;ratioP1;P1;durP2;ratioP2;P2;SDS_P1;SDS_P2;PMS_P1;PMS_P2;Temp;Humidity;BMP_temperature;BMP_pressure;BME280_temperature;BME280_humidity;BME280_pressure;Samples;Min_cycle;Max_cycle;Signal;HPM_P1;HPM_P2
2023/01/24 00:00:34;;;;;;;37.60;16.98;;;2.10;99.90;;;;;;4995333;28;20050;-69
2023/01/24 00:03:00;;;;;;;38.53;17.55;;;2.10;99.90;;;;;;4974236;28;20462;-68
2023/01/24 00:05:26;;;;;;;39.80;17.98;;;2.10;99.90;;;;;;4975993;28;20079;-69
2023/01/24 00:07:54;;;;;;;32.47;16.02;;;2.10;99.90;;;;;;4995993;28;20060;-68
2023/01/24 00:10:20;;;;;;;40.25;18.35;;;2.10;99.90;;;;;;4991452;28;20049;-69
2023/01/24 00:12:46;;;;;;;34.13;16.40;;;2.10;99.90;;;;;;4975248;28;20038;-69
2023/01/24 00:15:11;;;;;;;31.83;16.55;;;2.00;99.90;;;;;;4976545;28;20044;-69
2023/01/24 00:17:37;;;;;;;33.53;16.08;;;2.10;99.90;;;;;;4982980;28;20113;-69
2023/01/24 00:20:05;;;;;;;33.42;17.10;;;2.10;99.90;;;;;;4973571;28;20042;-68
2023/01/24 00:22:31;;;;;;;37.30;18.05;;;2.10;99.90;;;;;;5001426;28;20042;-69
2023/01/24 00:25:00;;;;;;;32.78;17.95;;;2.10;99.90;;;;;;4991507;28;20042;-69
2023/01/24 00:27:26;;;;;;;33.58;16.85;;;2.10;99.90;;;;;;4973411;28;20713;-69
2023/01/24 00:29:51;;;;;;;35.33;17.25;;;2.10;99.90;;;;;;4975986;28;20037;-69
2023/01/24 00:32:17;;;;;;;36.97;16.90;;;2.10;99.90;;;;;;4961282;28;20066;-69
2023/01/24 00:34:43;;;;;;;39.80;17.55;;;2.10;99.90;;;;;;5002269;28;20041;-69
2023/01/24 00:37:09;;;;;;;36.60;18.85;;;2.10;99.90;;;;;;4994505;28;20042;-68
2023/01/24 00:39:34;;;;;;;39.90;17.38;;;2.10;99.90;;;;;;4990497;28;20042;-69
2023/01/24 00:42:00;;;;;;;32.08;17.13;;;2.10;99.90;;;;;;4977092;28;20034;-69
2023/01/24 00:44:26;;;;;;;36.88;16.73;;;2.10;99.90;;;;;;4979432;28;20538;-69
2023/01/24 00:46:52;;;;;;;31.50;17.25;;;2.10;99.90;;;;;;5003515;28;20034;-68
2023/01/24 00:49:19;;;;;;;37.65;19.10;;;2.10;99.90;;;;;;4995817;28;20060;-69
2023/01/24 00:51:44;;;;;;;38.22;17.52;;;2.10;99.90;;;;;;4980847;28;20533;-69
2023/01/24 00:54:10;;;;;;;37.15;17.52;;;2.00;99.90;;;;;;4995349;28;20077;-69
2023/01/24 00:56:36;;;;;;;35.40;16.42;;;2.00;99.90;;;;;;4992826;28;20129;-69
2023/01/24 00:59:02;;;;;;;34.25;17.35;;;2.10;99.90;;;;;;4994899;28;20041;-68
2023/01/24 01:01:27;;;;;;;31.92;16.33;;;2.10;99.90;;;;;;4979305;28;20041;-69
2023/01/24 01:03:58;;;;;;;32.63;16.58;;;2.00;99.90;;;;;;4992452;28;20038;-69
2023/01/24 01:06:25;;;;;;;39.85;17.85;;;2.10;99.90;;;;;;4992244;28;20086;-68
2023/01/24 01:08:51;;;;;;;37.95;18.52;;;2.00;99.90;;;;;;4972129;28;20068;-69
2023/01/24 01:11:17;;;;;;;37.72;17.50;;;2.00;99.90;;;;;;4994648;28;20053;-69
2023/01/24 01:13:43;;;;;;;33.13;16.77;;;2.00;99.90;;;;;;4969153;28;20442;-68
2023/01/24 01:16:19;;;;;;;34.38;16.38;;;2.00;99.90;;;;;;4995164;28;20049;-69
2023/01/24 01:18:46;;;;;;;35.03;17.55;;;2.00;99.90;;;;;;4976677;28;20117;-68
2023/01/24 01:21:14;;;;;;;34.55;16.85;;;2.10;99.90;;;;;;4990850;28;20124;-69
2023/01/24 01:23:39;;;;;;;34.38;16.52;;;2.00;99.90;;;;;;4990334;28;20042;-69
2023/01/24 01:26:09;;;;;;;34.17;17.65;;;2.00;99.90;;;;;;4974940;28;20041;-68
2023/01/24 01:28:35;;;;;;;31.95;17.05;;;2.10;99.90;;;;;;4990568;28;20030;-69
2023/01/24 01:31:01;;;;;;;37.40;18.13;;;2.00;99.90;;;;;;5006823;28;20080;-69
2023/01/24 01:33:27;;;;;;;36.55;17.63;;;2.00;99.90;;;;;;4991805;28;20044;-68
2023/01/24 01:35:53;;;;;;;37.40;17.00;;;2.00;99.90;;;;;;5007620;28;20050;-68
2023/01/24 01:38:20;;;;;;;37.58;18.38;;;2.10;99.90;;;;;;4989882;28;20045;-69
2023/01/24 01:40:46;;;;;;;34.58;17.00;;;2.00;99.90;;;;;;4990949;28;20053;-69
2023/01/24 01:43:17;;;;;;;32.45;17.02;;;2.00;99.90;;;;;;4976484;28;20040;-69
2023/01/24 01:45:49;;;;;;;29.00;15.85;;;2.00;99.90;;;;;;4994434;28;20103;-69
2023/01/24 01:48:46;;;;;;;27.45;14.48;;;2.00;99.90;;;;;;4992834;28;20041;-68
2023/01/24 01:51:31;;;;;;;31.08;15.20;;;2.10;99.90;;;;;;4993807;28;20088;-68
2023/01/24 01:54:06;;;;;;;28.52;15.05;;;2.00;99.90;;;;;;4977538;28;20048;-69
2023/01/24 01:56:38;;;;;;;24.27;13.07;;;2.00;99.90;;;;;;4968254;28;20080;-69
2023/01/24 01:59:09;;;;;;;26.60;13.18;;;2.10;99.90;;;;;;5009474;28;20125;-69
2023/01/24 02:01:35;;;;;;;25.37;13.20;;;2.30;99.90;;;;;;4994349;28;20045;-69
2023/01/24 02:04:27;;;;;;;25.70;14.27;;;2.10;99.90;;;;;;4994373;28;20289;-68
2023/01/24 02:07:05;;;;;;;27.77;13.27;;;2.10;99.90;;;;;;4977564;28;20374;-69
2023/01/24 02:09:41;;;;;;;25.52;12.35;;;2.10;99.90;;;;;;4977715;28;20042;-69
2023/01/24 02:12:18;;;;;;;21.80;11.48;;;2.10;99.90;;;;;;4993784;28;20034;-69
2023/01/24 02:17:31;;;;;;;21.75;11.85;;;2.10;99.90;;;;;;4990240;28;20049;-69
2023/01/24 02:20:10;;;;;;;20.90;11.13;;;2.10;99.90;;;;;;4992494;28;20104;-69
2023/01/24 02:23:01;;;;;;;19.77;10.88;;;2.10;99.90;;;;;;4991442;28;20042;-68
2023/01/24 02:25:27;;;;;;;22.10;12.05;;;2.10;99.90;;;;;;4992757;28;20037;-69
2023/01/24 02:27:54;;;;;;;22.45;12.00;;;2.10;99.90;;;;;;4977770;28;20077;-69
2023/01/24 02:30:20;;;;;;;20.00;11.20;;;2.10;99.90;;;;;;4993257;28;20519;-69
2023/01/24 02:32:46;;;;;;;24.67;12.20;;;2.10;99.90;;;;;;4977630;28;20044;-69
2023/01/24 02:35:26;;;;;;;19.35;11.40;;;2.20;99.90;;;;;;4993970;28;20041;-68
2023/01/24 02:37:53;;;;;;;20.63;11.98;;;2.10;99.90;;;;;;5008982;28;20125;-68
2023/01/24 02:40:20;;;;;;;24.88;11.90;;;2.10;99.90;;;;;;4982557;28;20499;-68
2023/01/24 02:42:49;;;;;;;23.80;11.90;;;2.10;99.90;;;;;;4993787;28;20172;-68
2023/01/24 02:45:23;;;;;;;20.10;11.70;;;2.10;99.90;;;;;;4994091;28;20135;-68
2023/01/24 02:47:51;;;;;;;21.02;11.25;;;2.90;99.90;;;;;;4972594;28;20167;-68
2023/01/24 02:50:18;;;;;;;18.40;10.00;;;2.10;99.90;;;;;;4976395;28;20038;-68
2023/01/24 02:55:29;;;;;;;21.23;11.13;;;2.20;99.90;;;;;;4993255;28;20397;-68
2023/01/24 02:58:07;;;;;;;19.75;10.75;;;2.10;99.90;;;;;;4993342;28;20046;-68
2023/01/24 03:00:39;;;;;;;18.70;9.48;;;2.10;99.90;;;;;;4991310;28;20044;-69
2023/01/24 03:03:06;;;;;;;18.08;9.60;;;2.10;99.90;;;;;;4992598;28;20104;-68
2023/01/24 03:08:16;;;;;;;16.73;9.48;;;2.10;99.90;;;;;;4992948;28;20069;-68
2023/01/24 03:10:42;;;;;;;20.63;11.27;;;2.10;99.90;;;;;;4976541;28;20483;-68
2023/01/24 03:35:06;;;;;;;20.45;9.88;;;2.00;99.90;;;;;;4992096;28;20042;-69
2023/01/24 03:40:16;;;;;;;17.35;9.00;;;2.00;99.90;;;;;;4992757;28;20522;-69
2023/01/24 03:42:48;;;;;;;17.20;9.13;;;2.10;99.90;;;;;;4975901;28;20517;-69
2023/01/24 03:45:20;;;;;;;20.23;10.68;;;2.10;99.90;;;;;;5007432;28;20131;-68
2023/01/24 03:48:04;;;;;;;17.10;9.25;;;2.00;99.90;;;;;;4989466;28;20033;-68
2023/01/24 03:53:26;;;;;;;17.52;9.50;;;2.00;99.90;;;;;;4989625;28;20038;-68
2023/01/24 03:55:57;;;;;;;15.90;8.60;;;2.20;99.90;;;;;;5008582;28;20070;-69
2023/01/24 03:58:24;;;;;;;15.55;8.98;;;2.10;99.90;;;;;;4992775;28;20228;-68
2023/01/24 04:00:52;;;;;;;15.20;8.57;;;2.00;99.90;;;;;;4989677;28;20514;-68
2023/01/24 04:03:18;;;;;;;15.63;8.52;;;2.00;99.90;;;;;;4991507;28;20140;-68
2023/01/24 04:05:48;;;;;;;17.85;9.35;;;2.00;99.90;;;;;;4989715;28;20046;-68
2023/01/24 04:08:16;;;;;;;15.05;8.02;;;2.00;99.90;;;;;;4990838;28;20061;-68
2023/01/24 04:10:42;;;;;;;15.40;8.90;;;2.00;99.90;;;;;;4975537;28;20025;-68
2023/01/24 04:13:11;;;;;;;16.35;9.27;;;2.00;99.90;;;;;;4991376;28;20041;-69
2023/01/24 04:15:40;;;;;;;19.73;9.95;;;2.00;99.90;;;;;;4988435;28;20103;-68
2023/01/24 04:18:07;;;;;;;16.17;9.07;;;2.00;99.90;;;;;;4992332;28;20045;-69
2023/01/24 04:20:35;;;;;;;15.75;8.95;;;2.00;99.90;;;;;;4976223;28;20041;-69
2023/01/24 04:23:06;;;;;;;15.45;8.85;;;2.00;99.90;;;;;;4973339;28;20125;-68
2023/01/24 04:25:33;;;;;;;17.92;10.02;;;1.90;99.90;;;;;;4982777;28;20046;-69
2023/01/24 04:28:00;;;;;;;19.83;9.27;;;2.00;99.90;;;;;;5008792;28;20050;-68
2023/01/24 04:30:26;;;;;;;16.25;8.27;;;1.90;99.90;;;;;;4991505;28;20030;-69
2023/01/24 04:32:52;;;;;;;12.35;7.32;;;2.00;99.90;;;;;;4991743;28;20091;-69
2023/01/24 04:35:21;;;;;;;13.75;7.80;;;2.00;99.90;;;;;;4972870;28;20041;-69
2023/01/24 04:37:47;;;;;;;15.50;8.48;;;2.00;99.90;;;;;;4990597;28;20039;-68
2023/01/24 04:40:14;;;;;;;13.98;7.93;;;1.90;99.90;;;;;;4992162;28;20395;-68
2023/01/24 04:42:40;;;;;;;15.93;9.13;;;1.90;99.90;;;;;;4975816;28;20514;-68
2023/01/24 04:45:07;;;;;;;13.35;7.90;;;1.90;99.90;;;;;;4990531;28;20479;-68
2023/01/24 04:47:33;;;;;;;14.63;7.85;;;1.90;99.90;;;;;;4992070;28;20104;-68
2023/01/24 04:49:58;;;;;;;16.23;9.07;;;2.30;99.90;;;;;;4975627;28;20546;-68
2023/01/24 04:52:24;;;;;;;12.77;8.13;;;1.90;99.90;;;;;;4991779;28;20108;-68
2023/01/24 04:54:53;;;;;;;15.00;8.00;;;1.90;99.90;;;;;;4991295;28;20133;-69
2023/01/24 04:57:19;;;;;;;16.25;9.27;;;1.90;99.90;;;;;;4992148;28;20069;-69
2023/01/24 04:59:45;;;;;;;15.75;9.73;;;1.90;99.90;;;;;;4989709;28;20131;-69
2023/01/24 05:02:10;;;;;;;15.52;9.20;;;1.90;99.90;;;;;;4975153;28;20049;-69
2023/01/24 05:04:36;;;;;;;16.67;9.13;;;1.90;99.90;;;;;;4975607;28;20129;-69
2023/01/24 05:07:03;;;;;;;15.63;8.25;;;2.00;99.90;;;;;;4990813;28;20072;-68
2023/01/24 05:09:29;;;;;;;14.98;8.63;;;1.90;99.90;;;;;;4989489;28;20057;-69
2023/01/24 05:11:55;;;;;;;15.90;9.38;;;1.90;99.90;;;;;;4991305;28;20037;-69
2023/01/24 05:14:20;;;;;;;17.40;9.60;;;1.90;99.90;;;;;;4991550;28;20045;-69
2023/01/24 05:16:46;;;;;;;16.20;8.93;;;1.90;99.90;;;;;;4991247;28;20060;-69
2023/01/24 05:19:15;;;;;;;14.80;9.07;;;1.90;99.90;;;;;;4991674;28;20047;-68
2023/01/24 05:21:40;;;;;;;17.33;8.90;;;1.90;99.90;;;;;;4977538;28;20040;-69
2023/01/24 05:24:06;;;;;;;15.13;9.63;;;1.90;99.90;;;;;;4978934;28;20414;-69
2023/01/24 05:26:35;;;;;;;14.85;8.95;;;1.90;99.90;;;;;;4991650;28;20038;-69
2023/01/24 05:29:01;;;;;;;14.63;8.63;;;1.90;99.90;;;;;;4991248;28;20041;-69
2023/01/24 05:31:27;;;;;;;18.02;8.50;;;1.80;99.90;;;;;;4962383;28;20041;-69
2023/01/24 05:33:53;;;;;;;14.30;9.05;;;1.90;99.90;;;;;;4995578;28;20559;-69
2023/01/24 05:36:21;;;;;;;15.73;9.35;;;1.80;99.90;;;;;;4978685;28;20038;-69
2023/01/24 05:38:50;;;;;;;20.42;9.50;;;1.80;99.90;;;;;;4994720;28;20570;-68
2023/01/24 05:41:18;;;;;;;16.92;9.85;;;1.80;99.90;;;;;;4995193;28;20061;-69
2023/01/24 05:43:45;;;;;;;15.85;9.35;;;1.90;99.90;;;;;;4978195;28;20052;-68
2023/01/24 05:46:17;;;;;;;17.02;9.55;;;1.90;99.90;;;;;;4994960;28;20045;-68
2023/01/24 05:48:44;;;;;;;19.48;9.35;;;1.90;99.90;;;;;;4995103;28;20038;-69
2023/01/24 05:51:12;;;;;;;15.52;9.68;;;1.90;99.90;;;;;;4980807;28;20037;-69
2023/01/24 05:53:40;;;;;;;15.80;9.02;;;1.90;99.90;;;;;;4994620;28;20088;-69
2023/01/24 05:56:27;;;;;;;14.52;9.13;;;1.90;99.90;;;;;;4978718;28;20092;-69
2023/01/24 05:58:53;;;;;;;15.90;9.15;;;1.80;99.90;;;;;;4993172;28;20077;-68
2023/01/24 06:01:21;;;;;;;19.75;9.15;;;1.80;99.90;;;;;;4976829;28;20264;-69
2023/01/24 06:03:51;;;;;;;15.35;9.32;;;1.80;99.90;;;;;;4995930;28;20045;-68
2023/01/24 06:06:23;;;;;;;15.35;8.73;;;1.80;99.90;;;;;;4961276;28;20050;-69
2023/01/24 06:08:49;;;;;;;17.52;9.60;;;1.80;99.90;;;;;;4993367;28;20981;-68
2023/01/24 06:11:22;;;;;;;15.70;9.43;;;2.10;99.90;;;;;;4994656;28;20042;-69
2023/01/24 06:13:48;;;;;;;15.63;9.05;;;1.80;99.90;;;;;;4992141;28;20301;-69
2023/01/24 06:16:17;;;;;;;14.63;8.98;;;1.80;99.90;;;;;;4976330;28;20250;-69
2023/01/24 06:18:43;;;;;;;14.73;8.90;;;1.70;99.90;;;;;;4987133;28;20043;-68
2023/01/24 06:21:27;;;;;;;18.27;9.63;;;1.70;99.90;;;;;;4977759;28;20053;-68
2023/01/24 06:23:55;;;;;;;17.63;9.48;;;1.70;99.90;;;;;;4994366;28;20045;-68
2023/01/24 06:26:22;;;;;;;17.80;9.80;;;1.70;99.90;;;;;;4977507;28;20049;-68
2023/01/24 06:28:47;;;;;;;15.20;9.25;;;1.70;99.90;;;;;;4962007;28;20546;-68
2023/01/24 06:31:19;;;;;;;16.30;9.52;;;1.70;99.90;;;;;;4992585;28;20112;-68
2023/01/24 06:34:00;;;;;;;16.55;9.25;;;1.70;99.90;;;;;;5008105;28;20125;-68
2023/01/24 06:37:15;;;;;;;15.73;8.88;;;1.70;99.90;;;;;;4993553;28;20046;-69
2023/01/24 06:39:49;;;;;;;14.73;8.23;;;1.70;99.90;;;;;;4978168;28;20120;-68
2023/01/24 06:42:19;;;;;;;16.67;9.25;;;1.80;99.90;;;;;;4993183;28;20037;-68
2023/01/24 06:44:45;;;;;;;18.50;8.50;;;1.70;99.90;;;;;;4991723;28;20064;-68
2023/01/24 06:47:12;;;;;;;14.05;8.13;;;1.70;99.90;;;;;;4977413;28;20048;-68
2023/01/24 06:49:39;;;;;;;18.33;9.88;;;1.70;99.90;;;;;;4994566;28;20034;-68
2023/01/24 06:52:05;;;;;;;16.42;9.57;;;1.70;99.90;;;;;;4993095;28;20116;-68
2023/01/24 06:54:32;;;;;;;16.98;9.73;;;1.70;99.90;;;;;;4993118;28;20036;-68
2023/01/24 06:56:58;;;;;;;14.60;9.02;;;1.70;99.90;;;;;;4991258;28;20034;-68
2023/01/24 06:59:23;;;;;;;18.42;9.00;;;1.70;99.90;;;;;;4993681;28;20081;-68
2023/01/24 07:01:50;;;;;;;17.88;10.23;;;1.80;99.90;;;;;;4991164;28;20046;-69
2023/01/24 07:04:18;;;;;;;15.73;9.80;;;1.70;99.90;;;;;;4993146;28;20076;-68
2023/01/24 07:06:45;;;;;;;17.42;10.02;;;1.70;99.90;;;;;;4992059;28;20042;-69
2023/01/24 07:09:12;;;;;;;16.17;9.65;;;1.70;99.90;;;;;;4992733;28;20113;-68
2023/01/24 07:11:42;;;;;;;17.58;9.57;;;1.70;99.90;;;;;;4992836;28;20048;-68
2023/01/24 07:14:08;;;;;;;16.65;9.98;;;1.70;99.90;;;;;;4977199;28;20034;-68
2023/01/24 07:16:34;;;;;;;16.23;9.25;;;1.60;99.90;;;;;;4992795;28;20048;-68
2023/01/24 07:19:01;;;;;;;16.50;9.98;;;1.70;99.90;;;;;;4977247;28;20465;-68
2023/01/24 07:21:28;;;;;;;15.45;9.27;;;1.70;99.90;;;;;;4991113;28;20037;-68
2023/01/24 07:23:56;;;;;;;17.13;10.45;;;1.70;99.90;;;;;;4976395;28;20121;-68
2023/01/24 07:26:21;;;;;;;16.33;9.57;;;1.70;99.90;;;;;;4992686;28;20048;-68
2023/01/24 07:28:47;;;;;;;14.52;9.35;;;1.60;99.90;;;;;;4992597;28;20034;-69
2023/01/24 07:31:15;;;;;;;16.65;9.50;;;1.60;99.90;;;;;;4992097;28;20042;-68
2023/01/24 07:33:41;;;;;;;16.63;9.55;;;1.60;99.90;;;;;;4993083;28;20086;-69
2023/01/24 07:36:16;;;;;;;15.82;9.75;;;1.60;99.90;;;;;;4992562;28;20478;-69
2023/01/24 07:38:42;;;;;;;17.52;10.75;;;1.60;99.90;;;;;;4992714;28;20076;-68
2023/01/24 07:41:09;;;;;;;16.70;9.45;;;1.60;99.90;;;;;;4992357;28;20074;-69
2023/01/24 07:43:34;;;;;;;15.60;9.45;;;1.60;99.90;;;;;;4978818;28;20121;-68
2023/01/24 07:46:01;;;;;;;14.23;9.27;;;1.60;99.90;;;;;;4985128;28;20137;-68
2023/01/24 07:48:29;;;;;;;17.52;10.10;;;1.60;99.90;;;;;;4990932;28;20072;-68
2023/01/24 07:50:59;;;;;;;14.60;8.65;;;1.60;99.90;;;;;;4975064;28;20112;-68
2023/01/24 07:53:26;;;;;;;17.13;9.48;;;1.60;99.90;;;;;;4974885;28;20564;-69
2023/01/24 07:55:51;;;;;;;17.02;8.98;;;1.70;99.90;;;;;;4975412;28;20045;-68
2023/01/24 07:58:20;;;;;;;16.45;9.68;;;1.80;99.90;;;;;;4991611;28;20048;-68
2023/01/24 08:00:49;;;;;;;16.30;10.15;;;1.60;99.90;;;;;;4959695;28;20501;-68
2023/01/24 08:03:14;;;;;;;14.93;9.10;;;1.60;99.90;;;;;;4991813;28;20044;-68
2023/01/24 08:05:43;;;;;;;16.13;9.82;;;1.60;99.90;;;;;;4984040;28;20108;-68
2023/01/24 08:08:09;;;;;;;15.98;9.13;;;1.70;99.90;;;;;;4974284;28;20050;-69
2023/01/24 08:10:35;;;;;;;17.35;9.55;;;1.60;99.90;;;;;;4973644;28;20038;-68
2023/01/24 08:13:01;;;;;;;17.63;9.85;;;1.60;99.90;;;;;;4974217;28;20041;-68
2023/01/24 08:15:29;;;;;;;12.57;8.48;;;1.60;99.90;;;;;;4990797;28;20046;-68
2023/01/24 08:17:57;;;;;;;17.27;10.55;;;1.60;99.90;;;;;;4991791;28;20049;-69
2023/01/24 08:20:23;;;;;;;17.92;9.82;;;1.60;99.90;;;;;;4992139;28;20050;-68
2023/01/24 08:22:55;;;;;;;17.85;9.73;;;1.60;99.90;;;;;;4992063;28;20439;-68
2023/01/24 08:25:22;;;;;;;17.58;10.18;;;1.60;99.90;;;;;;4991216;28;20474;-69
2023/01/24 08:27:51;;;;;;;16.40;9.40;;;1.60;99.90;;;;;;4983920;28;20051;-68
2023/01/24 08:30:17;;;;;;;14.95;9.63;;;1.60;99.90;;;;;;4978513;28;20042;-68
2023/01/24 08:32:43;;;;;;;15.60;9.23;;;1.60;99.90;;;;;;4961798;28;20404;-69
2023/01/24 08:35:11;;;;;;;18.48;9.88;;;1.60;99.90;;;;;;4960227;28;20076;-68
2023/01/24 08:37:37;;;;;;;15.80;9.80;;;1.60;99.90;;;;;;4974281;28;20116;-69
2023/01/24 08:40:04;;;;;;;17.30;10.30;;;1.70;99.90;;;;;;4960024;28;20124;-68
2023/01/24 08:42:29;;;;;;;14.77;8.90;;;1.60;99.90;;;;;;4947775;28;20100;-69
2023/01/24 08:44:55;;;;;;;16.25;10.05;;;1.60;99.90;;;;;;4984897;28;20057;-69
2023/01/24 08:47:21;;;;;;;14.52;9.07;;;1.70;99.90;;;;;;4973555;28;20050;-68
2023/01/24 08:49:47;;;;;;;18.52;9.73;;;1.70;99.90;;;;;;4991297;28;20526;-69
2023/01/24 08:52:12;;;;;;;16.80;10.13;;;1.70;99.90;;;;;;4991551;28;20038;-68
2023/01/24 08:54:38;;;;;;;16.15;9.75;;;1.60;99.90;;;;;;4975708;28;20041;-69
2023/01/24 08:57:07;;;;;;;17.58;10.18;;;1.70;99.90;;;;;;4996105;28;20450;-69
2023/01/24 08:59:33;;;;;;;16.42;9.68;;;1.70;99.90;;;;;;4995176;28;20077;-68
2023/01/24 09:01:59;;;;;;;16.75;10.20;;;1.70;99.90;;;;;;4963439;28;20297;-68
2023/01/24 09:04:26;;;;;;;17.50;9.40;;;1.70;99.90;;;;;;4978178;28;20134;-68
2023/01/24 09:06:52;;;;;;;17.33;10.48;;;1.70;99.90;;;;;;4978505;28;20051;-68
2023/01/24 09:09:19;;;;;;;16.13;10.23;;;1.70;99.90;;;;;;4953649;28;20467;-68
2023/01/24 09:11:45;;;;;;;15.55;10.55;;;1.70;99.90;;;;;;4962785;28;20043;-68
2023/01/24 09:14:14;;;;;;;18.08;10.90;;;1.70;99.90;;;;;;4959148;28;20031;-69
2023/01/24 09:16:39;;;;;;;16.08;9.80;;;1.70;99.90;;;;;;4988169;28;20038;-68
2023/01/24 09:19:05;;;;;;;17.83;11.18;;;1.70;99.90;;;;;;4970438;28;20034;-68
2023/01/24 09:21:31;;;;;;;16.88;10.48;;;1.80;99.90;;;;;;4942500;28;20089;-68
2023/01/24 09:23:57;;;;;;;17.30;9.63;;;1.70;99.90;;;;;;4975260;28;20038;-68
2023/01/24 09:26:23;;;;;;;17.80;10.30;;;1.80;99.90;;;;;;5000313;28;20130;-68
2023/01/24 09:28:48;;;;;;;19.60;10.95;;;1.70;99.90;;;;;;4959727;28;20298;-68
2023/01/24 09:31:14;;;;;;;15.15;9.82;;;1.80;99.90;;;;;;4976089;28;20050;-69
2023/01/24 09:33:40;;;;;;;16.35;10.38;;;1.70;99.90;;;;;;4975923;28;20045;-68
2023/01/24 09:36:07;;;;;;;16.25;10.18;;;1.70;99.90;;;;;;4987546;28;20038;-68
2023/01/24 09:38:33;;;;;;;17.05;10.35;;;1.70;99.90;;;;;;4959841;28;20053;-69
2023/01/24 09:41:34;;;;;;;16.17;9.95;;;1.70;99.90;;;;;;4992316;28;20578;-68
2023/01/24 09:44:07;;;;;;;16.20;10.23;;;1.80;99.90;;;;;;4975032;28;20049;-68
2023/01/24 09:46:43;;;;;;;14.43;8.95;;;1.80;99.90;;;;;;4994914;28;20039;-68
2023/01/24 09:49:14;;;;;;;16.52;10.43;;;1.80;99.90;;;;;;4972414;28;20515;-68
2023/01/24 09:51:54;;;;;;;16.17;10.10;;;1.70;99.90;;;;;;4973921;28;20364;-69
2023/01/24 09:54:59;;;;;;;16.15;10.10;;;1.80;99.90;;;;;;4971555;28;20303;-69
2023/01/24 09:57:31;;;;;;;16.27;10.02;;;1.80;99.90;;;;;;4967783;28;20491;-69
2023/01/24 10:00:15;;;;;;;17.85;10.68;;;1.90;99.90;;;;;;4968201;28;20120;-68
2023/01/24 10:02:42;;;;;;;18.75;11.15;;;1.80;99.90;;;;;;4949226;28;20282;-69
2023/01/24 10:05:14;;;;;;;19.63;10.95;;;1.80;99.90;;;;;;4939329;28;20204;-69
2023/01/24 10:07:55;;;;;;;18.00;10.52;;;1.80;99.90;;;;;;4986387;28;20116;-69
2023/01/24 10:10:30;;;;;;;16.67;10.27;;;1.80;99.90;;;;;;4979823;28;20495;-69
2023/01/24 10:13:11;;;;;;;17.95;10.10;;;1.80;99.90;;;;;;4978875;28;20034;-69
2023/01/24 10:15:50;;;;;;;16.10;9.25;;;1.80;99.90;;;;;;4961565;28;20041;-69
2023/01/24 10:18:19;;;;;;;15.98;9.80;;;1.80;99.90;;;;;;4962514;28;20054;-69
2023/01/24 10:20:58;;;;;;;16.10;9.30;;;1.80;99.90;;;;;;4994931;28;20041;-69
2023/01/24 10:23:33;;;;;;;18.95;10.20;;;1.80;99.90;;;;;;4980199;28;20148;-69
2023/01/24 10:26:19;;;;;;;19.38;11.15;;;1.80;99.90;;;;;;4978123;28;20128;-69
2023/01/24 10:28:58;;;;;;;18.02;10.27;;;1.90;99.90;;;;;;4962187;28;20184;-69
2023/01/24 10:31:33;;;;;;;17.85;10.40;;;1.90;99.90;;;;;;4962994;28;20561;-69
2023/01/24 10:34:31;;;;;;;18.50;10.38;;;1.90;99.90;;;;;;4996162;28;20053;-69
2023/01/24 10:37:09;;;;;;;18.15;10.93;;;1.90;99.90;;;;;;4978516;28;20050;-68
2023/01/24 10:39:35;;;;;;;17.08;10.63;;;1.90;99.90;;;;;;4962638;28;20085;-69
2023/01/24 10:42:28;;;;;;;19.13;11.80;;;1.90;99.90;;;;;;4962728;28;20030;-69
2023/01/24 10:45:18;;;;;;;16.83;10.77;;;2.00;99.90;;;;;;4963463;28;20085;-68
2023/01/24 10:47:56;;;;;;;17.48;10.82;;;2.00;99.90;;;;;;4976928;28;20128;-68
2023/01/24 10:50:32;;;;;;;17.30;10.73;;;2.00;99.90;;;;;;4976021;28;20335;-69
2023/01/24 10:53:13;;;;;;;17.88;10.77;;;2.00;99.90;;;;;;4961040;28;20942;-69
2023/01/24 10:55:41;;;;;;;19.85;11.48;;;2.00;99.90;;;;;;4972069;28;20395;-69
2023/01/24 10:58:24;;;;;;;19.05;11.45;;;2.00;99.90;;;;;;4978372;28;20053;-69
2023/01/24 11:00:59;;;;;;;19.15;10.45;;;2.00;99.90;;;;;;4976696;28;20053;-69
2023/01/24 11:03:34;;;;;;;19.10;10.48;;;2.00;99.90;;;;;;4976653;28;20202;-69
2023/01/24 11:06:01;;;;;;;17.27;10.15;;;2.00;99.90;;;;;;4975569;28;20096;-69
2023/01/24 11:08:32;;;;;;;18.23;10.30;;;2.00;99.90;;;;;;4961537;28;20041;-69
2023/01/24 11:10:59;;;;;;;18.85;10.57;;;2.00;99.90;;;;;;4980612;28;20037;-69
2023/01/24 11:13:37;;;;;;;14.57;9.98;;;2.00;99.90;;;;;;4979271;28;20057;-69
2023/01/24 11:16:17;;;;;;;17.67;10.70;;;1.90;99.90;;;;;;4979251;28;20053;-69
2023/01/24 11:18:47;;;;;;;17.40;11.27;;;2.00;99.90;;;;;;4996982;28;20049;-69
2023/01/24 11:21:20;;;;;;;15.93;10.00;;;2.00;99.90;;;;;;4996785;28;20523;-69
2023/01/24 11:24:08;;;;;;;19.30;10.25;;;2.10;99.90;;;;;;4980503;28;20129;-69
2023/01/24 11:26:52;;;;;;;18.58;11.20;;;2.00;99.90;;;;;;4980894;28;20057;-68
2023/01/24 11:29:19;;;;;;;15.65;10.52;;;2.10;99.90;;;;;;4981294;28;20030;-69
2023/01/24 11:31:54;;;;;;;17.42;11.48;;;2.10;99.90;;;;;;4965600;28;20041;-69
2023/01/24 11:34:57;;;;;;;14.50;9.45;;;2.10;99.90;;;;;;4980868;28;20096;-69
2023/01/24 11:37:58;;;;;;;16.30;10.63;;;2.10;99.90;;;;;;4964290;28;20092;-69
2023/01/24 11:40:48;;;;;;;18.25;11.50;;;2.10;99.90;;;;;;4904744;29;20513;-68
2023/01/24 11:43:17;;;;;;;17.30;11.27;;;2.00;99.90;;;;;;4978088;28;20053;-68
2023/01/24 11:46:24;;;;;;;15.68;10.00;;;2.00;99.90;;;;;;4964337;28;20034;-68
2023/01/24 11:49:17;;;;;;;16.70;10.70;;;2.00;99.90;;;;;;4993550;28;20052;-68
2023/01/24 11:51:57;;;;;;;16.45;10.40;;;2.00;99.90;;;;;;4964093;28;20095;-68
2023/01/24 11:55:04;;;;;;;16.83;11.00;;;2.00;99.90;;;;;;4980107;28;20041;-68
2023/01/24 11:57:57;;;;;;;16.33;11.52;;;2.00;99.90;;;;;;4948835;28;20046;-68
2023/01/24 12:00:59;;;;;;;19.77;10.60;;;2.00;99.90;;;;;;4976983;28;20038;-68
2023/01/24 12:03:52;;;;;;;15.47;10.10;;;2.00;99.90;;;;;;4975410;28;20064;-68
2023/01/24 12:06:45;;;;;;;16.70;10.38;;;2.00;99.90;;;;;;4976322;28;20468;-68
2023/01/24 12:09:57;;;;;;;17.52;10.07;;;2.00;99.90;;;;;;4974340;28;20042;-68
2023/01/24 12:12:46;;;;;;;18.27;11.07;;;2.00;99.90;;;;;;4961256;28;20073;-68
2023/01/24 12:15:33;;;;;;;18.48;10.50;;;1.90;99.90;;;;;;4975985;28;20037;-68
2023/01/24 12:18:36;;;;;;;19.02;10.65;;;2.00;99.90;;;;;;4973951;28;20054;-68
2023/01/24 12:21:13;;;;;;;17.33;10.63;;;2.00;99.90;;;;;;4975693;28;20054;-68
2023/01/24 12:23:44;;;;;;;16.50;10.70;;;2.00;99.90;;;;;;4975822;28;20033;-68
2023/01/24 12:26:19;;;;;;;17.48;10.75;;;2.00;99.90;;;;;;4990501;28;20041;-68
2023/01/24 12:28:52;;;;;;;17.10;10.32;;;1.90;99.90;;;;;;4984885;28;20040;-68
2023/01/24 12:31:28;;;;;;;17.67;11.05;;;1.90;99.90;;;;;;4976709;28;20776;-68
2023/01/24 12:34:32;;;;;;;17.42;10.65;;;1.90;99.90;;;;;;4979424;28;20049;-68
2023/01/24 12:37:04;;;;;;;17.70;10.82;;;1.90;99.90;;;;;;4979389;28;20037;-68
2023/01/24 12:39:40;;;;;;;18.80;10.77;;;1.90;99.90;;;;;;4976737;28;20513;-68
2023/01/24 12:42:16;;;;;;;16.88;10.18;;;2.10;99.90;;;;;;4958605;28;20093;-68
2023/01/24 12:44:52;;;;;;;15.70;10.32;;;1.90;99.90;;;;;;4958074;28;20045;-68
2023/01/24 12:47:20;;;;;;;20.40;11.93;;;1.90;99.90;;;;;;4979774;28;20041;-68
2023/01/24 12:49:58;;;;;;;17.20;10.52;;;1.90;99.90;;;;;;4984951;28;20036;-68
2023/01/24 12:52:48;;;;;;;18.85;10.82;;;1.80;99.90;;;;;;4975570;28;20044;-68
2023/01/24 12:55:24;;;;;;;16.77;10.30;;;1.80;99.90;;;;;;4992679;28;20505;-68
2023/01/24 12:58:11;;;;;;;16.02;9.80;;;1.80;99.90;;;;;;4991486;28;20041;-68
2023/01/24 13:01:27;;;;;;;18.85;10.65;;;1.90;99.90;;;;;;4989967;28;20034;-68
2023/01/24 13:04:43;;;;;;;17.55;10.73;;;1.90;99.90;;;;;;4974070;28;20049;-68
2023/01/24 13:07:41;;;;;;;19.48;10.52;;;1.90;99.90;;;;;;4933232;28;20505;-68
2023/01/24 13:10:21;;;;;;;16.05;9.40;;;1.90;99.90;;;;;;4949214;28;20181;-68
2023/01/24 13:12:52;;;;;;;20.35;10.38;;;1.90;99.90;;;;;;4983821;28;20408;-68
2023/01/24 13:15:24;;;;;;;17.50;11.00;;;2.00;99.90;;;;;;4992083;28;20043;-68
2023/01/24 13:18:22;;;;;;;19.45;10.68;;;1.90;99.90;;;;;;4991975;28;20115;-68
2023/01/24 13:21:05;;;;;;;16.58;10.90;;;1.90;99.90;;;;;;4991794;28;20081;-68
2023/01/24 13:24:19;;;;;;;14.40;9.75;;;1.90;99.90;;;;;;4971002;28;20034;-68
2023/01/24 13:26:50;;;;;;;19.35;9.63;;;1.90;99.90;;;;;;4970883;28;20149;-68
2023/01/24 13:29:37;;;;;;;16.67;9.38;;;1.90;99.90;;;;;;4980030;28;20048;-68
2023/01/24 13:32:17;;;;;;;15.05;10.45;;;1.90;99.90;;;;;;5001083;28;20497;-68
2023/01/24 13:34:50;;;;;;;16.70;9.45;;;1.90;99.90;;;;;;5007965;28;20693;-68
2023/01/24 13:37:28;;;;;;;15.43;9.80;;;1.90;99.90;;;;;;5009453;28;20037;-68
2023/01/24 13:40:24;;;;;;;17.10;10.25;;;1.90;99.90;;;;;;4991586;28;20053;-68
2023/01/24 13:42:50;;;;;;;14.75;10.13;;;1.90;99.90;;;;;;4993580;28;20046;-68